Friday, February 23, 2018, 1:43 PM EST
Back to Local

KPBG, Plattsburgh International Airport

Location: Plattsburgh, NY, United States Lat: 44.65
Local Time: 1:43 PM EST (18:43 GMT) Lon: -73.467
Time Zone: US/Eastern Elev: 239 ft

Show me the last for .
Show Decoded

2018-02-23 12:53 METAR KPBG 231753Z AUTO 17021G32KT 10SM BKN080 OVC095 03/M07 A3032 RMK AO2 PK
                 WND 17032/1747 PRESFR SLP271 T00281067 10028 21078 58069 =
2018-02-23 11:53 METAR KPBG 231653Z AUTO 16017G22KT 10SM OVC090 01/M07 A3040 RMK AO2 PRESFR
                 SLP300 T00111072 =
2018-02-23 10:53 METAR KPBG 231553Z AUTO 14017KT 10SM BKN100 M02/M07 A3048 RMK AO2 SLP324
                 T10171067 =
2018-02-23 09:53 METAR KPBG 231453Z AUTO 14014KT 10SM BKN110 M03/M07 A3053 RMK AO2 SLP342
                 T10281067 58030 =
2018-02-23 08:53 METAR KPBG 231353Z AUTO 14010KT 10SM CLR M04/M07 A3056 RMK AO2 PRESFR SLP353
                 T10391072 =
2018-02-23 07:53 METAR KPBG 231253Z AUTO 23003KT 10SM CLR M06/M08 A3060 RMK AO2 SLP366 T10561078
                 =
2018-02-23 06:53 METAR KPBG 231153Z AUTO 00000KT 10SM CLR M08/M09 A3062 RMK AO2 SLP373 I6000
                 T10781094 11072 21089 58026 =
2018-02-23 05:53 METAR KPBG 231053Z AUTO 00000KT 10SM CLR M08/M10 A3065 RMK AO2 SLP382 I1000
                 T10831100 =
2018-02-23 04:53 METAR KPBG 230953Z AUTO 34003KT 10SM SCT110 M08/M10 A3068 RMK AO2 SLP393 I1000
                 T10831100 =
2018-02-23 03:53 METAR KPBG 230853Z AUTO 00000KT 10SM CLR M08/M10 A3070 RMK AO2 SLP399 I3000
                 T10781100 56015 =
2018-02-23 02:53 METAR KPBG 230753Z AUTO 00000KT 10SM CLR M08/M10 A3071 RMK AO2 SLP405 T10781100
                 =
2018-02-23 01:53 METAR KPBG 230653Z AUTO 23004KT 10SM CLR M07/M10 A3071 RMK AO2 SLP405 I1000
                 T10721100 =
2018-02-23 00:53 METAR KPBG 230553Z AUTO 00000KT 10SM CLR M07/M09 A3074 RMK AO2 SLP414 T10721094
                 11050 21083 53002 =
2018-02-22 23:53 METAR KPBG 230453Z AUTO 00000KT 10SM CLR M08/M09 A3074 RMK AO2 SLP416 T10781094
                 400061083 =
2018-02-22 22:53 METAR KPBG 230353Z AUTO 00000KT 10SM CLR M08/M10 A3072 RMK AO2 SLP409 T10781100
                 =
2018-02-22 21:53 METAR KPBG 230253Z AUTO 00000KT 10SM CLR M07/M09 A3073 RMK AO2 SLP412 T10721094
                 53001 =
2018-02-22 20:53 METAR KPBG 230153Z AUTO 27004KT 10SM CLR M06/M09 A3074 RMK AO2 SLP412 T10611094
                 =
2018-02-22 19:53 METAR KPBG 230053Z AUTO 00000KT 10SM CLR M06/M09 A3072 RMK AO2 SLP408 T10561094
                 =
2018-02-22 18:53 METAR KPBG 222353Z AUTO 36003KT 10SM CLR M06/M10 A3073 RMK AO2 SLP409 T10561100
                 11022 21056 51008 =
2018-02-22 17:53 METAR KPBG 222253Z AUTO 02004KT 10SM CLR M04/M10 A3072 RMK AO2 SLP407 T10441100
                 =
2018-02-22 16:53 METAR KPBG 222153Z AUTO 02007KT 10SM FEW110 M03/M10 A3072 RMK AO2 SLP405
                 T10331100 =
2018-02-22 15:53 METAR KPBG 222053Z AUTO 03008KT 10SM SCT120 M03/M10 A3070 RMK AO2 SLP401
                 T10331100 58002 =
2018-02-22 14:53 METAR KPBG 221953Z AUTO 03008KT 10SM OVC110 M03/M10 A3072 RMK AO2 SLP405
                 T10281100 =
2018-02-22 13:53 METAR KPBG 221853Z AUTO 05008KT 10SM OVC120 M03/M10 A3071 RMK AO2 SLP402
                 T10281100 =

Support USWX by starting your Amazon purchase here.